Jacobs, Texas
Current Conditions -  °F | °C
As of 6:35 PM on Thursday 27 Nov 2014 (Local Time) from KRFI Reporting Station
Clear Clear  
Wind Chill: 45°   Ceiling: Unl
Heat Index: 45°   Visibility: 10mi
Dew Point: 34°   Wind: 0mph
Humidity: 65%   Direction: NA
Pressure: 30.44"   Gusts: NA
Location:  32.2818°N, 94.951°W
Report Text: KRFI 280035Z AUTO 00000KT 10SM CLR 07/01 A3044 RMK AO2 T00710009
Loading
Personal Weather Stations






























Interactive Weather Map New forecast layout! Learn more

10-Day Weather Forecast

Advertisements
Track Severe Weather on mobile